MTS Valour — MPVV8 — position and weather

sailwx.info

Track history (hours):
 
Tides and Currents Weather Stations Pressure Air Temp Water Temp Dewpoint Dewpoint Depression Visibility Wind Speed Wind Dir Waves Ship Positions

MTS Valour

Last reported at 2016-Sep-28 12:33 UTC. Time now 2016-Sep-28 15:27 UTC.
Position N 51°54' E 004°26'.

Length 24 m; draft 2.4 m.

Type: Tug. MMSI: 235040596.

Date/timePositionNaut miles runAvg speedWind from/ knotsBaromVisibWave heightAir tempDewpointWater temp
2016-Sep-28 12:33N 51°54' E 004°26'11 2.8
2016-Sep-28 08:34N 51°58' E 004°09'18 3.5
2016-Sep-28 03:19N 52°04' E 003°40'  
2016-Sep-25 17:33N 52°02' E 003°56'5 5.0
2016-Sep-25 16:33N 51°59' E 004°03'2 2.2
2016-Sep-25 15:33N 51°58' E 003°60'1 1.1
2016-Sep-25 14:33N 51°57' E 003°60'0 0.0
2016-Sep-25 12:33N 51°57' E 003°60'0 0.0
2016-Sep-25 11:31N 51°57' E 003°60'0 0.0
2016-Sep-25 10:33N 51°57' E 003°60'0 0.0
2016-Sep-25 09:33N 51°57' E 003°60'0 0.0
2016-Sep-25 07:33N 51°57' E 003°60'0 0.0
2016-Sep-25 04:33N 51°57' E 003°60'0 0.0
2016-Sep-25 00:33N 51°57' E 003°60'0 0.0
2016-Sep-24 22:31N 51°57' E 003°60'0 0.0
2016-Sep-24 21:33N 51°57' E 003°60'0 0.0
2016-Sep-24 19:33N 51°57' E 003°60'0 0.0
2016-Sep-24 18:33N 51°57' E 003°60'0 0.0
2016-Sep-24 17:33N 51°57' E 003°60'0 0.0
2016-Sep-24 16:33N 51°57' E 003°60'0 0.0
2016-Sep-24 14:33N 51°57' E 003°60'0 0.0
2016-Sep-24 12:31N 51°57' E 003°60'0 0.0
2016-Sep-24 10:33N 51°57' E 003°60'1 1.2
2016-Sep-24 09:33N 51°58' E 003°60'88 2.9
2016-Sep-23 03:33N 52°51' E 002°04'5 4.9
2016-Sep-23 02:33N 52°54' E 001°57'6 5.7
2016-Sep-23 01:33N 52°57' E 001°49'6 6.4
2016-Sep-23 00:33N 53°01' E 001°40'7 6.8
2016-Sep-22 23:33N 53°04' E 001°31'19 6.1
2016-Sep-22 20:27N 53°16' E 001°06'32 4.1
2016-Sep-22 12:33N 53°31' E 000°17'25 3.1
2016-Sep-22 04:25N 53°45' W 000°17'0 0.0
2016-Sep-22 03:31N 53°45' W 000°17'0 0.0
2016-Sep-22 00:31N 53°45' W 000°17'0 0.0
2016-Sep-21 23:31N 53°45' W 000°17'0 0.0
2016-Sep-21 22:31N 53°45' W 000°17'0 0.0
2016-Sep-21 19:28N 53°45' W 000°17'0 0.0
2016-Sep-21 16:31N 53°45' W 000°17'0 0.0
2016-Sep-21 09:31N 53°45' W 000°17'0 0.0
2016-Sep-21 08:28N 53°45' W 000°17'12 4.0
2016-Sep-21 05:34N 53°36' W 000°04'13 6.6
2016-Sep-21 03:33N 53°32' E 000°17'5 4.9
2016-Sep-21 02:31N 53°29' E 000°24'38 4.2
2016-Sep-20 17:33N 53°05' E 001°12'28 9.2
2016-Sep-20 14:33N 52°47' E 001°47'32 5.3
2016-Sep-20 08:30N 52°15' E 001°52'5 5.5
2016-Sep-20 07:33N 52°10' E 001°51'7 7.0
2016-Sep-20 06:33N 52°03' E 001°51'33 8.3
2016-Sep-20 02:33N 51°30' E 001°56'21 6.9
2016-Sep-19 23:33N 51°10' E 001°45'21 5.2
2016-Sep-19 19:33N 50°53' E 001°26'  
Track history (hours):
 
Tides and Currents Weather Stations Pressure Air Temp Water Temp Dewpoint Dewpoint Depression Visibility Wind Speed Wind Dir Waves Ship Positions

MTS Valour

Last reported at 2016-Sep-28 12:33 UTC. Time now 2016-Sep-28 15:27 UTC.
Position N 51°54' E 004°26'.

Length 24 m; draft 2.4 m.

Type: Tug. MMSI: 235040596.

Date/timePositionNaut miles runAvg speedWind from/ knotsBaromVisibWave heightAir tempDewpointWater temp
2016-Sep-28 12:33N 51°54' E 004°26'11 2.8
2016-Sep-28 08:34N 51°58' E 004°09'18 3.5
2016-Sep-28 03:19N 52°04' E 003°40'  
2016-Sep-25 17:33N 52°02' E 003°56'5 5.0
2016-Sep-25 16:33N 51°59' E 004°03'2 2.2
2016-Sep-25 15:33N 51°58' E 003°60'1 1.1
2016-Sep-25 14:33N 51°57' E 003°60'0 0.0
2016-Sep-25 12:33N 51°57' E 003°60'0 0.0
2016-Sep-25 11:31N 51°57' E 003°60'0 0.0
2016-Sep-25 10:33N 51°57' E 003°60'0 0.0
2016-Sep-25 09:33N 51°57' E 003°60'0 0.0
2016-Sep-25 07:33N 51°57' E 003°60'0 0.0
2016-Sep-25 04:33N 51°57' E 003°60'0 0.0
2016-Sep-25 00:33N 51°57' E 003°60'0 0.0
2016-Sep-24 22:31N 51°57' E 003°60'0 0.0
2016-Sep-24 21:33N 51°57' E 003°60'0 0.0
2016-Sep-24 19:33N 51°57' E 003°60'0 0.0
2016-Sep-24 18:33N 51°57' E 003°60'0 0.0
2016-Sep-24 17:33N 51°57' E 003°60'0 0.0
2016-Sep-24 16:33N 51°57' E 003°60'0 0.0
2016-Sep-24 14:33N 51°57' E 003°60'0 0.0
2016-Sep-24 12:31N 51°57' E 003°60'0 0.0
2016-Sep-24 10:33N 51°57' E 003°60'1 1.2
2016-Sep-24 09:33N 51°58' E 003°60'88 2.9
2016-Sep-23 03:33N 52°51' E 002°04'5 4.9
2016-Sep-23 02:33N 52°54' E 001°57'6 5.7
2016-Sep-23 01:33N 52°57' E 001°49'6 6.4
2016-Sep-23 00:33N 53°01' E 001°40'7 6.8
2016-Sep-22 23:33N 53°04' E 001°31'19 6.1
2016-Sep-22 20:27N 53°16' E 001°06'32 4.1
2016-Sep-22 12:33N 53°31' E 000°17'25 3.1
2016-Sep-22 04:25N 53°45' W 000°17'0 0.0
2016-Sep-22 03:31N 53°45' W 000°17'0 0.0
2016-Sep-22 00:31N 53°45' W 000°17'0 0.0
2016-Sep-21 23:31N 53°45' W 000°17'0 0.0
2016-Sep-21 22:31N 53°45' W 000°17'0 0.0
2016-Sep-21 19:28N 53°45' W 000°17'0 0.0
2016-Sep-21 16:31N 53°45' W 000°17'0 0.0
2016-Sep-21 09:31N 53°45' W 000°17'0 0.0
2016-Sep-21 08:28N 53°45' W 000°17'12 4.0
2016-Sep-21 05:34N 53°36' W 000°04'13 6.6
2016-Sep-21 03:33N 53°32' E 000°17'5 4.9
2016-Sep-21 02:31N 53°29' E 000°24'38 4.2
2016-Sep-20 17:33N 53°05' E 001°12'28 9.2
2016-Sep-20 14:33N 52°47' E 001°47'32 5.3
2016-Sep-20 08:30N 52°15' E 001°52'5 5.5
2016-Sep-20 07:33N 52°10' E 001°51'7 7.0
2016-Sep-20 06:33N 52°03' E 001°51'33 8.3
2016-Sep-20 02:33N 51°30' E 001°56'21 6.9
2016-Sep-19 23:33N 51°10' E 001°45'21 5.2
2016-Sep-19 19:33N 50°53' E 001°26'  

Dump ship's entire track history